Time;durP1;ratioP1;P1;durP2;ratioP2;P2;SDS_P1;SDS_P2;PMS_P1;PMS_P2;Temp;Humidity;BMP_temperature;BMP_pressure;BME280_temperature;BME280_humidity;BME280_pressure;Samples;Min_cycle;Max_cycle;Signal;HPM_P1;HPM_P2
2022/08/14 00:00:12;;;;;;;19.55;16.52;;;;;;;18.30;100.00;97663.30;1723807;82;21810;-84
2022/08/14 00:02:40;;;;;;;18.45;15.60;;;;;;;18.30;100.00;97653.70;1721965;82;21412;-86
2022/08/14 00:05:12;;;;;;;19.60;15.65;;;;;;;18.31;100.00;97660.78;1728291;81;20887;-85
2022/08/14 00:07:38;;;;;;;24.90;16.05;;;;;;;18.31;100.00;97664.10;1722016;82;21423;-86
2022/08/14 00:10:07;;;;;;;18.85;15.38;;;;;;;18.30;100.00;97657.81;1722076;82;21019;-86
2022/08/14 00:12:37;;;;;;;19.17;15.70;;;;;;;18.31;100.00;97653.93;1722281;82;21636;-86
2022/08/14 00:15:09;;;;;;;22.25;17.23;;;;;;;18.31;100.00;97654.50;1704187;82;21040;-84
2022/08/14 00:17:35;;;;;;;25.17;18.70;;;;;;;18.30;100.00;97651.53;1679078;85;20966;-86
2022/08/14 00:20:01;;;;;;;20.92;18.17;;;;;;;18.30;100.00;97653.70;1696515;84;20952;-86
2022/08/14 00:22:27;;;;;;;22.40;17.30;;;;;;;18.31;100.00;97649.02;1725431;82;21590;-86
2022/08/14 00:24:53;;;;;;;21.15;17.95;;;;;;;18.30;100.00;97646.05;1728809;82;21253;-84
2022/08/14 00:27:19;;;;;;;21.70;18.37;;;;;;;18.30;100.00;97643.30;1728222;82;20880;-86
2022/08/14 00:29:45;;;;;;;18.45;15.98;;;;;;;18.31;100.00;97644.91;1728727;82;21043;-83
2022/08/14 00:32:12;;;;;;;24.18;17.95;;;;;;;18.29;100.00;97643.88;1693676;84;21510;-86
2022/08/14 00:34:38;;;;;;;21.70;16.27;;;;;;;18.29;100.00;97640.33;1693396;84;20960;-83
2022/08/14 00:37:04;;;;;;;20.85;16.73;;;;;;;18.24;100.00;97630.94;1728880;83;21710;-86
2022/08/14 00:39:30;;;;;;;20.00;17.07;;;;;;;18.22;100.00;97634.59;1733408;81;21636;-84
2022/08/14 00:41:56;;;;;;;17.55;15.60;;;;;;;18.19;100.00;97623.71;1733628;81;21007;-84
2022/08/14 00:44:22;;;;;;;20.65;16.60;;;;;;;18.18;100.00;97630.91;1728881;82;20904;-86
2022/08/14 00:46:48;;;;;;;20.00;16.57;;;;;;;18.20;100.00;97628.63;1693727;84;20904;-84
2022/08/14 00:49:14;;;;;;;20.57;15.75;;;;;;;18.18;100.00;97626.80;1680363;84;21161;-86
2022/08/14 00:51:42;;;;;;;19.45;16.42;;;;;;;18.19;100.00;97629.20;1724261;83;20910;-86
2022/08/14 00:54:09;;;;;;;17.82;15.75;;;;;;;18.19;100.00;97622.91;1722578;82;21418;-86
2022/08/14 00:56:36;;;;;;;23.15;17.48;;;;;;;18.18;100.00;97616.63;1711973;83;21036;-84
2022/08/14 00:59:03;;;;;;;21.55;16.70;;;;;;;18.21;100.00;97618.72;1715884;83;21299;-84
2022/08/14 01:01:32;;;;;;;22.40;16.75;;;;;;;18.21;100.00;97616.55;1721754;82;21852;-83
2022/08/14 01:03:57;;;;;;;22.20;17.60;;;;;;;18.16;100.00;97611.27;1722146;83;21026;-86
2022/08/14 01:06:24;;;;;;;18.92;16.02;;;;;;;18.16;100.00;97611.27;1708033;82;21511;-86
2022/08/14 01:08:50;;;;;;;22.67;17.98;;;;;;;18.20;100.00;97611.63;1693648;83;21577;-86
2022/08/14 01:11:16;;;;;;;23.67;17.65;;;;;;;18.21;100.00;97612.43;1707131;82;21034;-83
2022/08/14 01:13:44;;;;;;;28.12;18.87;;;;;;;18.20;100.00;97606.69;1729707;82;21050;-86
2022/08/14 01:16:12;;;;;;;23.42;18.17;;;;;;;18.19;100.00;97601.77;1725223;82;20956;-86
2022/08/14 01:21:41;;;;;;;25.20;17.67;;;;;;;18.19;100.00;97605.89;1725143;83;21399;-86
2022/08/14 01:24:07;;;;;;;24.65;19.52;;;;;;;18.19;100.00;97603.72;1693183;84;21006;-86
2022/08/14 01:26:34;;;;;;;22.45;19.42;;;;;;;18.17;100.00;97610.92;1704798;83;21481;-83
2022/08/14 01:29:00;;;;;;;29.20;19.73;;;;;;;18.17;100.00;97607.37;1727702;82;20978;-85
2022/08/14 01:31:29;;;;;;;26.95;18.95;;;;;;;18.19;100.00;97614.69;1693310;83;21055;-83
2022/08/14 01:33:58;;;;;;;21.17;18.12;;;;;;;18.18;100.00;97608.98;1727567;82;21022;-85
2022/08/14 01:36:25;;;;;;;25.00;19.85;;;;;;;18.19;100.00;97607.83;1692963;83;21284;-86
2022/08/14 01:38:56;;;;;;;25.37;18.12;;;;;;;18.19;100.00;97608.63;1728647;82;21637;-84
2022/08/14 01:41:22;;;;;;;21.02;17.35;;;;;;;18.21;100.00;97607.75;1723105;82;21485;-86
2022/08/14 01:43:59;;;;;;;23.80;18.10;;;;;;;18.15;100.00;97614.58;1723500;82;21009;-85
2022/08/14 01:46:23;;;;;;;22.65;17.32;;;;;;;18.10;100.00;97618.89;1722955;83;21072;-83
2022/08/14 01:48:50;;;;;;;22.30;16.77;;;;;;;18.12;100.00;97613.89;1723715;82;21088;-83
2022/08/14 01:51:21;;;;;;;21.52;17.02;;;;;;;18.08;100.00;97619.80;1703743;83;21920;-83
2022/08/14 01:53:53;;;;;;;21.50;17.57;;;;;;;18.06;100.00;97617.18;1724047;83;21077;-86
2022/08/14 01:56:19;;;;;;;22.13;17.57;;;;;;;18.06;100.00;97620.72;1724018;82;20967;-86
2022/08/14 01:58:48;;;;;;;20.43;17.15;;;;;;;18.07;100.00;97615.47;1723986;83;21387;-82
2022/08/14 02:01:16;;;;;;;19.92;16.45;;;;;;;18.06;100.00;97609.75;1723870;83;21001;-83
2022/08/14 02:03:42;;;;;;;22.53;18.07;;;;;;;18.06;100.00;97611.12;1724372;83;21134;-83
2022/08/14 02:06:10;;;;;;;20.05;17.77;;;;;;;18.05;100.00;97605.41;1724492;82;20977;-85
2022/08/14 02:08:37;;;;;;;21.52;17.12;;;;;;;18.07;100.00;97610.55;1725793;83;21507;-84
2022/08/14 02:11:23;;;;;;;25.88;19.40;;;;;;;18.05;100.00;97606.78;1716856;82;21067;-85
2022/08/14 02:13:59;;;;;;;23.22;17.30;;;;;;;18.09;100.00;97600.05;1735963;81;21013;-85
2022/08/14 02:16:28;;;;;;;27.20;19.20;;;;;;;18.07;100.00;97601.76;1741337;80;21145;-86
2022/08/14 02:18:58;;;;;;;;;;;;;;;18.07;100.00;97608.61;1753206;80;21506;-86
2022/08/14 02:21:25;;;;;;;30.12;18.57;;;;;;;18.07;100.00;97608.61;1729489;81;20144;-84
2022/08/14 02:23:53;;;;;;;24.63;17.90;;;;;;;18.10;100.00;97601.07;1728510;82;21074;-84
2022/08/14 02:26:22;;;;;;;24.65;18.12;;;;;;;18.13;100.00;97603.73;1694475;83;21049;-83
2022/08/14 02:28:50;;;;;;;21.93;17.60;;;;;;;18.13;100.00;97607.84;1723773;83;21052;-86
2022/08/14 02:31:16;;;;;;;22.87;17.13;;;;;;;18.13;100.00;97605.09;1723741;82;21494;-86
2022/08/14 02:33:42;;;;;;;22.00;18.35;;;;;;;18.14;100.00;97598.47;1723708;82;21505;-84
2022/08/14 02:36:09;;;;;;;22.20;17.48;;;;;;;18.12;100.00;97597.45;1723577;83;21576;-84
2022/08/14 02:38:36;;;;;;;22.60;16.85;;;;;;;18.12;100.00;97593.91;1723744;83;20974;-85
2022/08/14 02:41:02;;;;;;;26.17;18.20;;;;;;;18.14;100.00;97594.36;1724316;83;21114;-84
2022/08/14 02:43:29;;;;;;;24.67;18.92;;;;;;;18.13;100.00;97584.53;1693035;84;20983;-86
2022/08/14 02:45:55;;;;;;;27.98;20.40;;;;;;;18.15;100.00;97591.27;1728381;83;21015;-83
2022/08/14 02:48:21;;;;;;;22.93;16.42;;;;;;;18.18;100.00;97589.21;1728387;83;21058;-86
2022/08/14 02:50:48;;;;;;;20.45;16.55;;;;;;;18.12;100.00;97586.48;1727136;82;20986;-86
2022/08/14 02:53:14;;;;;;;21.45;17.62;;;;;;;18.14;100.00;97584.77;1726887;82;21163;-85
2022/08/14 02:55:42;;;;;;;21.02;17.90;;;;;;;18.12;100.00;97587.84;1729125;82;20852;-86
2022/08/14 02:58:08;;;;;;;24.30;17.87;;;;;;;18.13;100.00;97590.81;1702355;83;20990;-83
2022/08/14 03:00:34;;;;;;;27.25;17.50;;;;;;;18.15;100.00;97591.27;1722619;82;21388;-86
2022/08/14 03:03:03;;;;;;;22.82;15.53;;;;;;;18.17;100.00;97586.81;1722127;83;20979;-86
2022/08/14 03:05:29;;;;;;;19.87;16.42;;;;;;;18.13;100.00;97585.33;1721999;82;21080;-86
2022/08/14 03:08:10;;;;;;;20.35;17.32;;;;;;;18.14;100.00;97588.30;1722027;82;21034;-86
2022/08/14 03:10:36;;;;;;;21.77;16.12;;;;;;;18.15;100.00;97595.95;1721838;82;20990;-86
2022/08/14 03:13:03;;;;;;;22.48;17.42;;;;;;;18.12;100.00;97598.02;1722159;82;20967;-86
2022/08/14 03:15:32;;;;;;;23.98;17.30;;;;;;;18.11;100.00;97593.08;1722096;82;21012;-84
2022/08/14 03:17:58;;;;;;;20.57;17.20;;;;;;;18.11;100.00;97591.70;1672623;84;21046;-84
2022/08/14 03:20:27;;;;;;;21.15;16.42;;;;;;;18.11;100.00;97591.70;1713070;83;20927;-86
2022/08/14 03:22:58;;;;;;;21.37;16.10;;;;;;;18.10;100.00;97590.67;1693205;83;22131;-86
2022/08/14 03:25:23;;;;;;;19.40;15.10;;;;;;;18.07;100.00;97584.52;1719974;82;21160;-86
2022/08/14 03:27:48;;;;;;;19.87;14.15;;;;;;;18.06;100.00;97579.60;1693336;84;20896;-86
2022/08/14 03:30:14;;;;;;;17.75;14.38;;;;;;;18.06;100.00;97579.60;1693626;83;21009;-83
2022/08/14 03:32:42;;;;;;;18.75;14.65;;;;;;;18.07;100.00;97580.40;1687160;83;20971;-83
2022/08/14 03:35:10;;;;;;;18.90;15.53;;;;;;;18.01;100.00;97581.17;1710017;83;21428;-84
2022/08/14 03:37:36;;;;;;;18.85;15.23;;;;;;;17.99;100.00;97574.66;1728846;82;21031;-86
2022/08/14 03:40:05;;;;;;;19.17;15.20;;;;;;;18.00;100.00;97576.27;1733988;81;20997;-86
2022/08/14 03:42:31;;;;;;;19.15;15.80;;;;;;;18.01;100.00;97570.20;1693302;84;21141;-84
2022/08/14 03:44:57;;;;;;;21.20;16.10;;;;;;;17.97;100.00;97573.41;1691257;83;20962;-86
2022/08/14 03:47:24;;;;;;;24.52;18.27;;;;;;;17.97;100.00;97574.78;1649686;84;21050;-84
2022/08/14 03:49:50;;;;;;;25.30;18.65;;;;;;;17.94;100.00;97576.81;1728992;82;21455;-85
2022/08/14 03:52:17;;;;;;;20.95;17.73;;;;;;;17.92;100.00;97580.47;1693464;83;21441;-86
2022/08/14 03:54:45;;;;;;;24.18;17.23;;;;;;;17.92;100.00;97581.27;1726978;81;21043;-83
2022/08/14 03:57:11;;;;;;;25.67;21.80;;;;;;;17.93;100.00;97583.43;1693069;84;21388;-83
2022/08/14 03:59:37;;;;;;;21.35;18.82;;;;;;;17.93;100.00;97581.48;1697871;83;21689;-85
2022/08/14 04:02:03;;;;;;;20.48;18.05;;;;;;;17.97;100.00;97579.69;1681655;84;20986;-84
2022/08/14 04:04:30;;;;;;;24.05;19.98;;;;;;;17.99;100.00;97584.26;1695059;81;21002;-86
2022/08/14 04:06:58;;;;;;;31.45;21.12;;;;;;;18.01;100.00;97573.75;1728666;82;21149;-86
2022/08/14 04:09:24;;;;;;;28.00;21.87;;;;;;;18.03;100.00;97577.52;1728864;82;20963;-84
2022/08/14 04:11:50;;;;;;;23.95;19.40;;;;;;;18.04;100.00;97570.92;1707772;82;20868;-85
2022/08/14 04:14:15;;;;;;;27.77;20.50;;;;;;;18.06;100.00;97577.43;1729140;82;20888;-84
2022/08/14 04:16:46;;;;;;;26.60;20.50;;;;;;;18.07;100.00;97572.97;1723344;82;20856;-84
2022/08/14 04:19:10;;;;;;;34.70;24.10;;;;;;;18.10;100.00;97577.77;1711642;82;21985;-83
2022/08/14 04:21:35;;;;;;;27.20;22.58;;;;;;;18.09;100.00;97579.48;1721246;82;20956;-85
2022/08/14 04:24:02;;;;;;;26.55;20.82;;;;;;;18.11;100.00;97577.99;1722276;83;20954;-84
2022/08/14 04:26:29;;;;;;;34.15;25.75;;;;;;;18.15;100.00;97582.25;1723794;82;21466;-84
2022/08/14 04:28:55;;;;;;;30.15;22.70;;;;;;;18.17;100.00;97588.98;1722380;82;21025;-84
2022/08/14 04:31:22;;;;;;;28.17;21.75;;;;;;;18.17;100.00;97582.12;1721878;82;21074;-85
2022/08/14 04:33:48;;;;;;;27.48;22.07;;;;;;;18.20;100.00;97581.47;1732262;82;21509;-86
2022/08/14 04:36:14;;;;;;;23.65;18.27;;;;;;;18.23;100.00;97583.52;1725546;82;21475;-86
2022/08/14 04:44:09;;;;;;;25.97;21.00;;;;;;;18.29;100.00;97574.52;1693728;83;21183;-84
2022/08/14 04:46:34;;;;;;;26.80;18.30;;;;;;;18.26;100.00;97576.55;1693403;84;20959;-85
2022/08/14 04:49:03;;;;;;;25.05;19.57;;;;;;;18.22;100.00;97575.07;1728881;82;20939;-86
2022/08/14 04:51:28;;;;;;;20.92;18.10;;;;;;;18.24;100.00;97574.72;1693630;84;20976;-84
2022/08/14 04:53:56;;;;;;;20.27;17.50;;;;;;;18.23;100.00;97573.12;1710820;83;20871;-84
2022/08/14 04:56:24;;;;;;;20.52;17.70;;;;;;;18.21;100.00;97573.47;1730107;82;21080;-84
2022/08/14 04:58:56;;;;;;;22.73;16.10;;;;;;;18.23;100.00;97571.19;1725237;82;21046;-86
2022/08/14 05:01:24;;;;;;;23.80;18.32;;;;;;;18.23;100.00;97571.75;1730916;82;20997;-84
2022/08/14 05:03:50;;;;;;;24.10;18.32;;;;;;;18.19;100.00;97575.73;1732115;82;21018;-84
2022/08/14 05:06:17;;;;;;;21.42;16.62;;;;;;;18.22;100.00;97578.38;1728557;81;20918;-86
2022/08/14 05:08:43;;;;;;;20.62;15.98;;;;;;;18.24;100.00;97576.09;1693193;83;21705;-84
2022/08/14 05:11:09;;;;;;;22.75;15.98;;;;;;;18.28;100.00;97573.69;1728791;81;20975;-84
2022/08/14 05:13:39;;;;;;;24.15;17.73;;;;;;;18.31;100.00;97572.22;1693012;83;21047;-83
2022/08/14 05:16:04;;;;;;;26.27;16.60;;;;;;;18.34;100.00;97570.16;1691073;83;21663;-83
2022/08/14 05:18:33;;;;;;;21.73;17.10;;;;;;;18.37;100.00;97572.78;1695934;83;21087;-86
2022/08/14 05:21:02;;;;;;;20.43;16.35;;;;;;;18.40;100.00;97576.23;1720160;83;21396;-84
2022/08/14 05:23:30;;;;;;;22.35;16.30;;;;;;;18.37;100.00;97572.78;1728674;82;20975;-87
2022/08/14 05:26:01;;;;;;;19.62;15.93;;;;;;;18.36;100.00;97569.24;1702086;82;26551;-84
2022/08/14 05:28:27;;;;;;;19.98;15.83;;;;;;;18.38;100.00;97570.30;1677368;84;21021;-86
2022/08/14 05:31:00;;;;;;;20.65;16.07;;;;;;;18.37;100.00;97565.92;1697842;83;21607;-84
2022/08/14 05:33:28;;;;;;;22.10;15.35;;;;;;;18.39;100.00;97568.58;1728951;82;21186;-83
2022/08/14 05:35:59;;;;;;;21.97;15.40;;;;;;;18.39;100.00;97567.20;1686266;84;21022;-84
2022/08/14 05:38:23;;;;;;;20.85;15.25;;;;;;;18.42;100.00;97565.72;1693178;84;21419;-84
2022/08/14 05:40:50;;;;;;;17.07;14.30;;;;;;;18.44;100.00;97562.84;1711350;83;21557;-84
2022/08/14 05:43:17;;;;;;;18.95;14.95;;;;;;;18.47;100.00;97564.93;1740279;81;21376;-84
2022/08/14 05:45:44;;;;;;;20.20;14.95;;;;;;;18.51;100.00;97567.20;1709719;82;50790;-84
2022/08/14 05:48:13;;;;;;;19.45;15.38;;;;;;;18.57;100.00;97560.93;1686832;84;21445;-84
2022/08/14 05:50:39;;;;;;;16.97;15.18;;;;;;;18.55;100.00;97564.59;1725759;82;21026;-84
2022/08/14 05:53:05;;;;;;;17.65;15.03;;;;;;;18.60;100.00;97562.41;1722707;82;20933;-84
2022/08/14 05:55:31;;;;;;;19.15;16.37;;;;;;;18.60;100.00;97567.09;1722716;83;22324;-86
2022/08/14 05:58:03;;;;;;;20.05;17.27;;;;;;;18.63;100.00;97564.22;1720946;82;21636;-83
2022/08/14 06:00:34;;;;;;;21.12;17.00;;;;;;;18.68;100.00;97566.21;1722105;82;21062;-84
2022/08/14 06:03:02;;;;;;;17.52;15.03;;;;;;;18.72;100.00;97563.02;1724331;82;21059;-84
2022/08/14 06:05:28;;;;;;;16.60;14.33;;;;;;;18.74;100.00;97564.84;1693335;83;21117;-86
2022/08/14 06:07:54;;;;;;;16.80;14.83;;;;;;;18.72;100.00;97565.77;1684354;83;21046;-86
2022/08/14 06:10:20;;;;;;;21.62;16.02;;;;;;;18.75;100.00;97567.02;1712391;83;21330;-87
2022/08/14 06:12:46;;;;;;;18.90;14.73;;;;;;;18.79;100.00;97566.55;1728445;83;20990;-86
2022/08/14 06:15:12;;;;;;;17.60;14.65;;;;;;;18.81;100.00;97565.65;1697980;83;20902;-84
2022/08/14 06:17:47;;;;;;;17.07;14.25;;;;;;;18.80;100.00;97564.84;1654328;85;20958;-86
2022/08/14 06:20:13;;;;;;;19.17;14.85;;;;;;;18.73;100.00;97563.82;1710984;83;21492;-84
2022/08/14 06:22:40;;;;;;;15.78;14.07;;;;;;;18.74;100.00;97561.30;1728573;82;21847;-84
2022/08/14 06:25:08;;;;;;;16.25;13.10;;;;;;;18.77;100.00;97566.09;1728674;82;20968;-83
2022/08/14 06:27:45;;;;;;;16.50;13.90;;;;;;;18.83;100.00;97566.90;1693314;84;21027;-86
2022/08/14 06:30:15;;;;;;;19.82;14.90;;;;;;;18.82;100.00;97561.76;1728860;81;21062;-85
2022/08/14 06:32:41;;;;;;;17.23;15.43;;;;;;;18.75;100.00;97565.64;1693187;83;21027;-84
2022/08/14 06:35:08;;;;;;;18.35;14.85;;;;;;;18.78;100.00;97563.57;1728748;83;20978;-84
2022/08/14 06:37:46;;;;;;;19.30;13.72;;;;;;;18.83;100.00;97566.09;1727296;83;20971;-85
2022/08/14 06:40:13;;;;;;;16.37;14.63;;;;;;;18.85;100.00;97567.34;1721635;83;21479;-84
2022/08/14 06:42:40;;;;;;;21.27;15.55;;;;;;;18.90;100.00;97568.27;1689260;82;21534;-86
2022/08/14 06:45:06;;;;;;;19.10;15.35;;;;;;;18.94;100.00;97562.30;1648713;86;21005;-86
2022/08/14 06:47:36;;;;;;;19.67;15.18;;;;;;;18.95;100.00;97565.27;1672884;85;21895;-85
2022/08/14 06:50:09;;;;;;;16.85;14.35;;;;;;;18.94;100.00;97563.67;1728286;82;21015;-83
2022/08/14 06:52:36;;;;;;;16.93;14.30;;;;;;;18.91;100.00;97563.80;1677531;85;21029;-86
2022/08/14 06:55:05;;;;;;;18.17;14.87;;;;;;;18.87;100.00;97567.80;1644593;86;21060;-84
2022/08/14 06:57:37;;;;;;;16.90;13.35;;;;;;;18.85;100.00;97561.86;1726032;83;21007;-86
2022/08/14 07:00:10;;;;;;;15.98;12.85;;;;;;;18.88;100.00;97557.06;1728317;82;21753;-83
2022/08/14 07:08:05;;;;;;;16.93;12.50;;;;;;;19.06;100.00;97553.49;1728568;81;20975;-84
2022/08/14 07:10:31;;;;;;;17.55;13.98;;;;;;;19.02;100.00;97560.80;1699453;83;20899;-86
2022/08/14 07:12:58;;;;;;;16.17;13.35;;;;;;;19.03;100.00;97559.66;1723195;82;21208;-84
2022/08/14 07:15:24;;;;;;;13.90;11.73;;;;;;;19.06;100.00;97563.10;1720241;83;21397;-84
2022/08/14 07:17:50;;;;;;;15.72;12.47;;;;;;;19.10;100.00;97561.83;1729257;81;20903;-85
2022/08/14 07:20:19;;;;;;;13.48;11.33;;;;;;;19.11;100.00;97560.10;1697597;83;20960;-86
2022/08/14 07:22:44;;;;;;;13.17;11.53;;;;;;;19.14;100.00;97559.42;1693250;84;21493;-86
2022/08/14 07:25:10;;;;;;;13.60;12.20;;;;;;;19.17;100.00;97563.42;1688924;84;21615;-86
2022/08/14 07:27:39;;;;;;;13.38;11.78;;;;;;;19.10;100.00;97562.63;1673567;85;20926;-85
2022/08/14 07:30:05;;;;;;;;;;;;;;;19.07;100.00;97563.33;1731356;82;20967;-84
2022/08/14 07:32:31;;;;;;;17.37;12.25;;;;;;;19.08;100.00;97564.92;1728541;82;20414;-83
2022/08/14 07:34:57;;;;;;;17.50;12.55;;;;;;;19.19;100.00;97561.69;1728862;82;20896;-86
2022/08/14 07:37:23;;;;;;;15.23;13.45;;;;;;;19.32;100.00;97566.02;1722546;82;21160;-86
2022/08/14 07:39:50;;;;;;;15.48;12.93;;;;;;;19.46;100.00;97565.05;1722619;82;21034;-85
2022/08/14 07:42:16;;;;;;;16.48;12.88;;;;;;;19.56;100.00;97561.83;1719409;82;21012;-86
2022/08/14 07:44:42;;;;;;;14.98;13.32;;;;;;;19.69;100.00;97562.59;1722255;82;20942;-86
2022/08/14 07:47:08;;;;;;;14.13;12.63;;;;;;;19.84;100.00;97556.92;1722448;82;21076;-86
2022/08/14 07:49:34;;;;;;;19.27;12.37;;;;;;;20.00;100.00;97555.80;1722489;83;21168;-84
2022/08/14 07:52:02;;;;;;;12.47;11.18;;;;;;;20.20;100.00;97560.03;1701762;83;21109;-84
2022/08/14 07:54:30;;;;;;;10.65;9.50;;;;;;;20.32;100.00;97561.89;1731477;82;21009;-86
2022/08/14 07:56:58;;;;;;;12.75;10.15;;;;;;;20.31;100.00;97560.30;1693276;83;21042;-84
2022/08/14 07:59:24;;;;;;;11.80;10.07;;;;;;;20.39;100.00;97556.58;1727763;83;20987;-84
2022/08/14 08:01:50;;;;;;;9.70;8.70;;;;;;;20.49;100.00;97560.20;1692891;84;21396;-84
2022/08/14 08:04:16;;;;;;;11.20;9.83;;;;;;;20.49;100.00;97559.63;1728854;83;21448;-84
2022/08/14 08:06:42;;;;;;;11.08;9.63;;;;;;;20.56;100.00;97560.38;1728797;81;21703;-84
2022/08/14 08:09:08;;;;;;;10.60;9.50;;;;;;;20.55;100.00;97559.58;1723190;83;20887;-85
2022/08/14 08:11:36;;;;;;;12.80;10.25;;;;;;;20.49;100.00;97564.33;1694609;82;20863;-86
2022/08/14 08:14:06;;;;;;;13.13;11.45;;;;;;;20.45;100.00;97557.95;1672433;85;21156;-85
2022/08/14 08:16:33;;;;;;;13.58;9.60;;;;;;;20.51;100.00;97553.78;1696202;83;21048;-86
2022/08/14 08:18:59;;;;;;;10.70;9.58;;;;;;;20.60;100.00;97557.73;1724919;82;21450;-86
2022/08/14 08:21:25;;;;;;;11.18;9.10;;;;;;;20.57;100.00;97555.09;1724048;82;20919;-85
2022/08/14 08:23:51;;;;;;;9.50;8.43;;;;;;;20.58;100.00;97553.93;1725413;82;21614;-86
2022/08/14 08:26:17;;;;;;;12.85;8.78;;;;;;;20.50;100.00;97554.91;1723973;82;21225;-86
2022/08/14 08:28:43;;;;;;;10.70;9.55;;;;;;;20.51;100.00;97550.45;1723508;83;20886;-84
2022/08/14 08:31:11;;;;;;;9.33;8.23;;;;;;;20.64;100.00;97555.27;1728222;82;20862;-86
2022/08/14 08:33:38;;;;;;;9.85;8.88;;;;;;;20.69;100.00;97551.46;1724127;83;20958;-86
2022/08/14 08:36:07;;;;;;;11.03;9.33;;;;;;;20.67;100.00;97555.13;1723759;83;21018;-86
2022/08/14 08:38:33;;;;;;;11.78;9.08;;;;;;;20.84;100.00;97551.99;1723652;83;21901;-86
2022/08/14 08:40:59;;;;;;;9.23;8.23;;;;;;;20.96;100.00;97555.23;1722670;82;21455;-86
2022/08/14 08:43:34;;;;;;;9.38;7.95;;;;;;;21.21;100.00;97555.20;1702572;82;21027;-86
2022/08/14 08:46:11;;;;;;;9.23;8.25;;;;;;;21.53;100.00;97553.72;1726369;82;21017;-86
2022/08/14 08:48:46;;;;;;;10.65;7.78;;;;;;;21.96;100.00;97549.28;1726105;83;20908;-86
2022/08/14 08:51:27;;;;;;;9.20;8.20;;;;;;;22.47;100.00;97542.69;1729062;83;21159;-86
2022/08/14 08:54:07;;;;;;;7.87;6.92;;;;;;;23.09;100.00;97540.53;1727634;82;21093;-85
2022/08/14 08:56:47;;;;;;;6.62;6.00;;;;;;;23.49;91.97;97539.07;1691320;84;21015;-84
2022/08/14 08:59:24;;;;;;;6.50;5.75;;;;;;;23.71;94.14;97537.41;1728443;82;21494;-84
2022/08/14 09:01:57;;;;;;;6.50;5.90;;;;;;;24.36;93.17;97537.72;1687109;84;21514;-84
2022/08/14 09:04:29;;;;;;;8.30;6.58;;;;;;;24.12;92.45;97546.55;1708771;83;21154;-86
2022/08/14 09:06:55;;;;;;;9.70;6.42;;;;;;;24.12;93.07;97540.42;1724312;82;21239;-84
2022/08/14 09:09:27;;;;;;;7.37;5.90;;;;;;;24.19;93.71;97536.34;1693156;84;21439;-84
2022/08/14 09:11:55;;;;;;;7.33;5.87;;;;;;;24.25;91.68;97531.23;1728428;83;21452;-87
2022/08/14 09:14:26;;;;;;;7.33;5.60;;;;;;;24.42;90.89;97529.25;1700536;83;20969;-84
2022/08/14 09:16:52;;;;;;;8.10;5.58;;;;;;;24.63;86.96;97532.00;1721656;83;21081;-87
2022/08/14 09:19:18;;;;;;;15.78;9.03;;;;;;;24.21;87.43;97527.66;1675399;83;21046;-86
2022/08/14 09:21:45;;;;;;;7.90;5.30;;;;;;;23.97;90.26;97523.46;1726056;82;21596;-84
2022/08/14 09:24:12;;;;;;;6.42;5.25;;;;;;;24.07;90.40;97524.73;1668281;85;21011;-85
2022/08/14 09:26:38;;;;;;;6.42;5.15;;;;;;;24.42;89.79;97518.77;1724270;83;21077;-85
2022/08/14 09:29:04;;;;;;;5.53;4.90;;;;;;;24.61;90.42;97525.47;1723887;83;21033;-85
2022/08/14 09:31:32;;;;;;;5.50;4.97;;;;;;;24.50;85.77;97520.41;1723746;83;21018;-84
2022/08/14 09:34:14;;;;;;;5.75;5.20;;;;;;;24.31;85.68;97528.34;1723942;83;21053;-85
2022/08/14 09:36:58;;;;;;;7.00;5.62;;;;;;;24.14;88.01;97524.81;1722741;82;21514;-87
2022/08/14 09:39:53;;;;;;;5.75;5.15;;;;;;;23.93;88.54;97530.94;1726869;82;21014;-84
2022/08/14 09:42:33;;;;;;;6.97;6.28;;;;;;;23.62;87.24;97533.55;1720783;81;21156;-87
2022/08/14 09:45:25;;;;;;;8.40;6.97;;;;;;;23.24;88.18;97532.63;1723196;82;20984;-88
2022/08/14 09:47:53;;;;;;;5.35;4.85;;;;;;;23.27;89.27;97535.25;1717263;82;21014;-87
2022/08/14 09:50:26;;;;;;;6.20;5.42;;;;;;;23.30;88.88;97535.28;1692250;83;21083;-86
2022/08/14 09:53:03;;;;;;;7.45;6.67;;;;;;;23.35;89.43;97527.27;1728615;82;21015;-88
2022/08/14 09:55:31;;;;;;;7.47;6.33;;;;;;;23.50;89.89;97526.84;1725938;82;22436;-85
2022/08/14 09:58:14;;;;;;;7.83;6.45;;;;;;;23.50;89.20;97524.07;1726675;83;21006;-84
2022/08/14 10:00:59;;;;;;;9.83;6.37;;;;;;;23.33;88.29;97528.23;1726052;83;21067;-84
2022/08/14 10:03:32;;;;;;;7.12;6.28;;;;;;;23.46;89.18;97526.01;1677968;85;21094;-85
2022/08/14 10:06:09;;;;;;;7.80;5.70;;;;;;;23.51;89.52;97523.72;1678310;85;21530;-88
2022/08/14 10:08:49;;;;;;;6.95;6.22;;;;;;;23.68;90.03;97522.37;1678158;84;21862;-87
2022/08/14 10:11:21;;;;;;;6.45;5.37;;;;;;;23.76;89.56;97520.48;1676072;85;21046;-85
2022/08/14 10:13:53;;;;;;;7.97;5.70;;;;;;;23.85;89.79;97526.51;1672568;85;21384;-85
2022/08/14 10:16:25;;;;;;;6.17;5.50;;;;;;;23.90;89.34;97525.56;1660534;85;21008;-84
2022/08/14 10:19:09;;;;;;;6.30;5.70;;;;;;;23.85;87.84;97528.69;1663956;85;21046;-84
2022/08/14 10:21:38;;;;;;;6.53;5.87;;;;;;;23.80;88.37;97519.92;1650958;85;21322;-87
2022/08/14 10:24:07;;;;;;;8.63;7.37;;;;;;;23.73;88.53;97532.28;1658854;84;21077;-85
2022/08/14 10:26:32;;;;;;;8.85;7.12;;;;;;;23.68;88.67;97529.88;1677564;85;20998;-84
2022/08/14 10:29:06;;;;;;;8.05;6.95;;;;;;;23.60;89.02;97527.02;1682733;84;21007;-87
2022/08/14 10:31:33;;;;;;;8.30;6.95;;;;;;;23.66;89.47;97528.05;1693448;84;21079;-84
2022/08/14 10:34:06;;;;;;;8.50;7.65;;;;;;;23.62;89.10;97534.34;1728824;82;21827;-85
2022/08/14 10:36:36;;;;;;;7.90;6.72;;;;;;;23.67;89.18;97529.63;1697975;83;21045;-87
2022/08/14 10:39:17;;;;;;;6.33;5.72;;;;;;;23.45;88.32;97534.09;1678591;84;21479;-84
2022/08/14 10:41:44;;;;;;;7.67;6.87;;;;;;;23.29;88.80;97535.08;1724455;82;21073;-87
2022/08/14 10:44:16;;;;;;;7.67;6.45;;;;;;;23.35;89.08;97530.82;1703454;83;20962;-85
2022/08/14 10:46:48;;;;;;;7.10;6.40;;;;;;;23.34;88.90;97530.62;1723857;83;21876;-85
2022/08/14 10:49:21;;;;;;;8.63;6.37;;;;;;;23.34;88.36;97522.33;1723447;82;20982;-84
2022/08/14 10:52:08;;;;;;;7.35;6.53;;;;;;;23.61;88.60;97522.28;1723965;83;22067;-88
2022/08/14 10:54:41;;;;;;;7.70;6.80;;;;;;;23.79;86.76;97515.56;1724386;82;21018;-85
2022/08/14 10:57:23;;;;;;;7.62;6.35;;;;;;;24.17;87.36;97508.82;1676676;85;21084;-85
2022/08/14 10:59:54;;;;;;;7.30;6.37;;;;;;;24.54;87.10;97513.54;1700578;83;21111;-86
2022/08/14 11:02:30;;;;;;;5.90;5.22;;;;;;;24.86;85.60;97510.38;1723457;83;21536;-84
2022/08/14 11:05:17;;;;;;;6.10;5.47;;;;;;;24.82;84.03;97508.78;1724997;82;20988;-85
2022/08/14 11:07:59;;;;;;;7.17;6.22;;;;;;;24.58;82.17;97511.58;1693107;84;21047;-88
2022/08/14 11:10:51;;;;;;;6.78;6.03;;;;;;;24.99;83.37;97513.64;1728630;83;21479;-84
2022/08/14 11:13:26;;;;;;;6.85;6.15;;;;;;;25.44;82.72;97511.52;1724187;82;21017;-85
2022/08/14 11:15:54;;;;;;;7.22;5.40;;;;;;;25.81;82.39;97516.27;1731618;82;21041;-88
2022/08/14 11:18:20;;;;;;;6.78;5.87;;;;;;;25.86;81.64;97508.92;1686336;84;21006;-87
2022/08/14 11:20:55;;;;;;;7.00;5.67;;;;;;;26.20;81.78;97509.19;1688659;83;20958;-88
2022/08/14 11:23:27;;;;;;;7.72;6.12;;;;;;;26.42;81.22;97509.44;1722025;82;21017;-85
2022/08/14 11:25:53;;;;;;;5.85;4.62;;;;;;;26.63;80.23;97507.24;1726179;82;21363;-85
2022/08/14 11:28:22;;;;;;;7.35;5.45;;;;;;;26.56;78.73;97508.63;1673472;84;21395;-84
2022/08/14 11:30:49;;;;;;;7.83;5.50;;;;;;;26.28;79.06;97511.57;1728198;82;21047;-88
2022/08/14 11:33:15;;;;;;;7.08;4.83;;;;;;;26.03;79.05;97503.21;1654907;85;21054;-85
2022/08/14 11:35:42;;;;;;;6.92;4.40;;;;;;;25.40;77.27;97505.98;1713204;83;21262;-88
2022/08/14 11:38:09;;;;;;;5.00;4.30;;;;;;;25.12;78.19;97503.84;1724201;82;21321;-88